createdAt,value
2022-10-06T00:02:58.573Z,32.07
2022-10-06T00:06:01.217Z,37.85
2022-10-06T00:09:02.791Z,66.50
2022-10-06T00:12:05.395Z,76.05
2022-10-06T00:15:07.966Z,74.43
2022-10-06T00:18:10.069Z,63.60
2022-10-06T00:21:11.671Z,55.45
2022-10-06T00:24:13.212Z,48.30
2022-10-06T00:27:15.292Z,39.13
2022-10-06T00:30:19.822Z,29.85
2022-10-06T00:33:21.374Z,19.40
2022-10-06T00:36:22.948Z,21.83
2022-10-06T00:39:24.500Z,24.63
2022-10-06T00:42:30.439Z,19.98
2022-10-06T00:45:43.041Z,23.20
2022-10-06T00:48:45.659Z,28.03
2022-10-06T00:52:09.187Z,26.98
2022-10-06T00:55:10.735Z,30.35
2022-10-06T00:58:12.386Z,37.35
2022-10-06T01:01:14.073Z,46.72
2022-10-06T01:04:17.776Z,45.80
2022-10-06T01:07:19.676Z,49.95
2022-10-06T01:10:21.349Z,66.95
2022-10-06T01:13:22.944Z,72.68
2022-10-06T01:16:25.133Z,70.30
2022-10-06T01:19:49.638Z,60.33
2022-10-06T01:23:01.601Z,59.75
2022-10-06T01:26:05.171Z,52.33
2022-10-06T01:29:06.750Z,60.75
2022-10-06T01:32:08.311Z,63.75
2022-10-06T01:35:10.255Z,58.90
2022-10-06T01:38:11.813Z,64.47
2022-10-06T01:41:13.435Z,62.47
2022-10-06T01:44:15.058Z,58.95
2022-10-06T01:47:16.627Z,68.70
2022-10-06T01:50:18.200Z,62.80
2022-10-06T01:53:19.865Z,67.75
2022-10-06T01:56:21.499Z,47.20
2022-10-06T01:59:23.153Z,29.05
2022-10-06T02:02:24.772Z,27.80
2022-10-06T02:05:26.356Z,26.23
2022-10-06T02:08:28.274Z,26.65
2022-10-06T02:11:30.010Z,45.55
2022-10-06T02:14:32.722Z,33.88
2022-10-06T02:17:34.287Z,41.47
2022-10-06T02:20:36.226Z,55.83
2022-10-06T02:23:37.925Z,103.07
2022-10-06T02:26:39.650Z,83.22
2022-10-06T02:29:41.274Z,63.20
2022-10-06T02:32:44.187Z,65.03
2022-10-06T02:35:46.553Z,49.57
2022-10-06T02:38:48.115Z,45.22
2022-10-06T02:41:49.698Z,42.97
2022-10-06T02:44:52.264Z,36.92
2022-10-06T02:47:54.699Z,29.25
2022-10-06T02:51:01.221Z,23.73
2022-10-06T02:54:02.833Z,21.35
2022-10-06T02:57:04.412Z,24.23
2022-10-06T03:00:07.376Z,25.52
2022-10-06T03:03:09.033Z,26.00
2022-10-06T03:06:24.886Z,22.73
2022-10-06T03:09:26.452Z,25.45
2022-10-06T03:12:28.084Z,30.23
2022-10-06T03:15:29.676Z,31.63
2022-10-06T03:18:31.842Z,30.92
2022-10-06T03:21:41.304Z,27.77
2022-10-06T03:24:42.898Z,27.77
2022-10-06T03:27:44.496Z,24.02
2022-10-06T03:30:46.069Z,23.80
2022-10-06T03:33:47.888Z,25.45
2022-10-06T03:36:49.513Z,25.07
2022-10-06T03:39:51.110Z,23.05
2022-10-06T03:42:52.659Z,25.88
2022-10-06T03:45:57.966Z,28.13
2022-10-06T03:49:00.709Z,24.88
2022-10-06T03:52:02.344Z,24.27
2022-10-06T03:55:04.154Z,27.48
2022-10-06T03:58:05.743Z,24.33
2022-10-06T04:01:14.566Z,26.65
2022-10-06T04:04:16.906Z,25.20
2022-10-06T04:07:18.475Z,25.90
2022-10-06T04:10:20.052Z,22.65
2022-10-06T04:13:22.041Z,25.10
2022-10-06T04:16:25.386Z,26.58
2022-10-06T04:19:27.425Z,22.90
2022-10-06T04:22:29.194Z,25.97
2022-10-06T04:25:30.813Z,24.02
2022-10-06T04:28:33.604Z,25.65
2022-10-06T04:31:39.329Z,23.23
2022-10-06T04:34:41.024Z,28.50
2022-10-06T04:37:42.657Z,22.57
2022-10-06T04:40:44.200Z,26.17
2022-10-06T04:43:46.753Z,28.05
2022-10-06T04:46:48.455Z,26.05
2022-10-06T04:49:50.111Z,28.17
2022-10-06T04:52:53.044Z,26.83
2022-10-06T04:56:01.994Z,29.38
2022-10-06T04:59:03.643Z,27.90
2022-10-06T05:02:06.969Z,25.30
2022-10-06T05:05:08.757Z,30.13
2022-10-06T05:08:10.347Z,28.23
2022-10-06T05:11:15.188Z,30.42
2022-10-06T05:14:19.274Z,29.05
2022-10-06T05:17:20.893Z,27.17
2022-10-06T05:20:22.988Z,26.63
2022-10-06T05:23:25.931Z,28.70
2022-10-06T05:26:28.979Z,28.42
2022-10-06T05:29:30.586Z,28.45
2022-10-06T05:32:35.924Z,27.23
2022-10-06T05:35:37.830Z,28.77
2022-10-06T05:38:39.564Z,29.10
2022-10-06T05:41:41.125Z,29.67
2022-10-06T05:44:42.820Z,23.52
2022-10-06T05:47:44.463Z,27.58
2022-10-06T05:50:46.030Z,25.43
2022-10-06T05:53:48.631Z,23.03
2022-10-06T05:56:50.299Z,26.65
2022-10-06T05:59:52.004Z,26.98
2022-10-06T06:02:53.761Z,25.25
2022-10-06T06:05:55.496Z,27.60
2022-10-06T06:08:57.973Z,24.90
2022-10-06T06:12:00.217Z,25.55
2022-10-06T06:15:20.872Z,23.70
2022-10-06T06:18:22.544Z,25.63
2022-10-06T06:21:25.117Z,23.43
2022-10-06T06:24:26.694Z,24.97
2022-10-06T06:27:28.539Z,25.00
2022-10-06T06:30:30.140Z,24.52
2022-10-06T06:33:31.838Z,25.10
2022-10-06T06:36:35.966Z,24.67
2022-10-06T06:39:37.653Z,23.60
2022-10-06T06:42:39.288Z,23.02
2022-10-06T06:45:40.971Z,23.50
2022-10-06T06:48:42.781Z,24.30
2022-10-06T06:51:44.979Z,21.57
2022-10-06T06:54:48.502Z,22.73
2022-10-06T06:57:50.152Z,24.15
2022-10-06T07:00:51.785Z,23.17
2022-10-06T07:03:57.932Z,19.80
2022-10-06T07:07:00.086Z,21.20
2022-10-06T07:10:01.902Z,18.93
2022-10-06T07:13:04.440Z,23.58
2022-10-06T07:16:24.918Z,21.35
2022-10-06T07:19:45.142Z,24.13
2022-10-06T07:23:05.525Z,21.57
2022-10-06T07:26:07.365Z,21.47
2022-10-06T07:29:09.148Z,18.80
2022-10-06T07:32:10.742Z,18.02
2022-10-06T07:35:12.439Z,20.45
2022-10-06T07:38:14.333Z,19.40
2022-10-06T07:41:20.346Z,18.07
2022-10-06T07:44:23.149Z,20.15
2022-10-06T07:47:24.816Z,20.02
2022-10-06T07:50:26.776Z,17.27
2022-10-06T07:53:28.366Z,17.47
2022-10-06T07:56:30.115Z,17.53
2022-10-06T07:59:32.163Z,17.17
2022-10-06T08:02:35.832Z,19.35
2022-10-06T08:05:39.533Z,18.00
2022-10-06T08:08:41.650Z,20.27
2022-10-06T08:11:45.186Z,21.27
2022-10-06T08:14:47.507Z,22.13
2022-10-06T08:17:49.117Z,20.48
2022-10-06T08:20:50.716Z,21.50
2022-10-06T08:23:52.908Z,19.57
2022-10-06T08:26:54.527Z,18.80
2022-10-06T08:29:56.321Z,21.55
2022-10-06T08:32:58.508Z,19.90
2022-10-06T08:36:08.762Z,23.05
2022-10-06T08:39:10.344Z,22.00
2022-10-06T08:42:18.785Z,24.47
2022-10-06T08:45:26.754Z,20.42
2022-10-06T08:48:29.811Z,28.38
2022-10-06T08:51:55.838Z,22.83
2022-10-06T08:55:01.490Z,27.20
2022-10-06T08:58:21.566Z,27.63
2022-10-06T09:01:24.821Z,26.05
2022-10-06T09:04:29.248Z,30.10
2022-10-06T09:07:48.414Z,31.30
2022-10-06T09:11:15.092Z,35.43
2022-10-06T09:14:19.324Z,28.70
2022-10-06T09:17:30.121Z,27.95
2022-10-06T09:20:34.923Z,24.58
2022-10-06T09:23:48.713Z,23.95
2022-10-06T09:26:50.357Z,25.57
2022-10-06T09:29:52.219Z,24.10
2022-10-06T09:33:00.142Z,24.13
2022-10-06T09:36:06.404Z,22.55
2022-10-06T09:39:10.141Z,25.17
2022-10-06T09:42:19.811Z,24.73
2022-10-06T09:45:25.952Z,24.53
2022-10-06T09:48:27.541Z,21.48
2022-10-06T09:51:33.976Z,20.08
2022-10-06T09:54:38.724Z,22.58
2022-10-06T09:57:51.106Z,21.70
2022-10-06T10:01:01.306Z,22.20
2022-10-06T10:04:22.688Z,25.52
2022-10-06T10:07:29.492Z,28.48
2022-10-06T10:10:31.053Z,22.35
2022-10-06T10:13:44.163Z,27.83
2022-10-06T10:16:49.667Z,22.30
2022-10-06T10:19:54.560Z,23.98
2022-10-06T10:22:58.403Z,25.02
2022-10-06T10:26:18.715Z,24.15
2022-10-06T10:30:01.738Z,27.17
2022-10-06T10:33:14.813Z,27.97
2022-10-06T10:36:16.899Z,25.35
2022-10-06T10:39:32.094Z,22.88
2022-10-06T10:42:41.577Z,27.90
2022-10-06T10:45:46.443Z,22.23
2022-10-06T10:49:15.531Z,21.37
2022-10-06T10:52:21.711Z,24.95
2022-10-06T10:55:40.159Z,20.42
2022-10-06T10:58:43.792Z,19.40
2022-10-06T11:01:53.293Z,25.93
2022-10-06T11:05:01.557Z,21.47
2022-10-06T11:08:34.181Z,20.42
2022-10-06T11:11:52.040Z,20.58
2022-10-06T11:15:02.224Z,17.40
2022-10-06T11:18:12.156Z,19.87
2022-10-06T11:21:24.124Z,21.07
2022-10-06T11:24:31.858Z,20.05
2022-10-06T11:27:40.015Z,19.40
2022-10-06T11:30:54.578Z,19.70
2022-10-06T11:33:58.793Z,22.73
2022-10-06T11:37:06.402Z,21.83
2022-10-06T11:40:39.680Z,24.00
2022-10-06T11:43:49.607Z,21.13
2022-10-06T11:47:14.400Z,22.85
2022-10-06T11:50:36.569Z,26.40
2022-10-06T11:53:39.632Z,24.27
2022-10-06T11:56:41.316Z,28.08
2022-10-06T11:59:43.047Z,27.50
2022-10-06T12:02:45.649Z,31.98
2022-10-06T12:05:56.120Z,28.17
2022-10-06T12:08:58.558Z,29.70
2022-10-06T12:12:15.509Z,25.02
2022-10-06T12:18:48.946Z,32.25
2022-10-06T12:22:01.155Z,29.67
2022-10-06T12:25:25.144Z,26.13
2022-10-06T12:28:55.645Z,25.15
2022-10-06T12:32:13.097Z,25.00
2022-10-06T12:35:32.058Z,26.30
2022-10-06T12:38:33.992Z,11.73
2022-10-06T12:42:01.078Z,11.90
2022-10-06T12:45:02.665Z,11.20
2022-10-06T12:48:04.711Z,21.95
2022-10-06T12:51:06.240Z,23.33
2022-10-06T12:54:10.629Z,20.93
2022-10-06T12:57:20.159Z,26.77
2022-10-06T13:00:23.995Z,23.63
2022-10-06T13:03:25.701Z,24.48
2022-10-06T13:06:27.380Z,23.10
2022-10-06T13:09:29.036Z,22.77
2022-10-06T13:12:32.007Z,20.67
2022-10-06T13:15:37.057Z,21.48
2022-10-06T13:18:38.621Z,20.27
2022-10-06T13:21:40.184Z,18.65
2022-10-06T13:24:41.766Z,19.40
2022-10-06T13:27:50.234Z,10.97
2022-10-06T13:34:13.620Z,9.63
2022-10-06T13:37:15.415Z,10.27
2022-10-06T13:40:21.735Z,10.00
2022-10-06T13:43:29.194Z,9.57
2022-10-06T13:46:32.145Z,9.43
2022-10-06T13:49:56.451Z,10.80
2022-10-06T13:52:58.461Z,11.32
2022-10-06T13:56:01.067Z,8.93
2022-10-06T13:59:31.495Z,10.37
2022-10-06T14:02:33.572Z,10.93
2022-10-06T14:05:42.377Z,8.65
2022-10-06T14:08:50.384Z,9.55
2022-10-06T14:12:16.408Z,11.33
2022-10-06T14:15:22.907Z,10.73
2022-10-06T14:18:31.155Z,12.60
2022-10-06T14:21:34.058Z,11.82
2022-10-06T14:24:37.503Z,11.63
2022-10-06T14:27:39.172Z,9.67
2022-10-06T14:30:40.760Z,11.17
2022-10-06T14:33:42.757Z,9.25
2022-10-06T14:36:46.389Z,10.60
2022-10-06T14:39:50.418Z,10.95
2022-10-06T14:42:52.017Z,9.37
2022-10-06T14:45:53.639Z,9.93
2022-10-06T14:48:55.566Z,10.50
2022-10-06T14:51:57.175Z,11.48
2022-10-06T14:54:59.225Z,11.20
2022-10-06T14:58:03.049Z,15.57
2022-10-06T15:01:06.254Z,10.97
2022-10-06T15:04:14.473Z,10.13
2022-10-06T15:07:34.358Z,10.80
2022-10-06T15:10:38.146Z,10.30
2022-10-06T15:13:39.721Z,8.87
2022-10-06T15:16:42.505Z,11.57
2022-10-06T15:19:44.116Z,14.95
2022-10-06T15:22:45.695Z,13.65
2022-10-06T15:26:16.111Z,12.68
2022-10-06T15:29:17.830Z,13.30
2022-10-06T15:32:19.417Z,14.13
2022-10-06T15:35:21.019Z,18.95
2022-10-06T15:38:22.572Z,20.08
2022-10-06T15:41:27.458Z,16.60
2022-10-06T15:44:31.590Z,17.03
2022-10-06T15:47:33.253Z,15.53
2022-10-06T15:50:36.264Z,17.02
2022-10-06T15:53:37.853Z,18.70
2022-10-06T15:56:39.486Z,19.67
2022-10-06T15:59:41.106Z,19.80
2022-10-06T16:02:42.809Z,17.20
2022-10-06T16:05:49.857Z,20.38
2022-10-06T16:08:51.395Z,15.90
2022-10-06T16:11:53.296Z,20.85
2022-10-06T16:14:54.971Z,16.50
2022-10-06T16:17:56.520Z,15.27
2022-10-06T16:20:58.248Z,17.05
2022-10-06T16:23:59.869Z,15.68
2022-10-06T16:27:04.807Z,16.67
2022-10-06T16:30:07.321Z,14.17
2022-10-06T16:33:09.063Z,16.23
2022-10-06T16:36:11.074Z,12.73
2022-10-06T16:39:14.354Z,12.05
2022-10-06T16:42:16.689Z,15.90
2022-10-06T16:45:18.255Z,17.27
2022-10-06T16:48:19.925Z,12.50
2022-10-06T16:51:22.947Z,12.23
2022-10-06T16:54:24.887Z,13.32
2022-10-06T16:57:30.249Z,14.25
2022-10-06T17:00:32.168Z,15.37
2022-10-06T17:03:33.893Z,13.37
2022-10-06T17:06:40.018Z,12.02
2022-10-06T17:10:01.487Z,15.52
2022-10-06T17:13:03.217Z,13.43
2022-10-06T17:16:06.923Z,13.47
2022-10-06T17:19:09.993Z,13.47
2022-10-06T17:22:11.649Z,14.32
2022-10-06T17:25:14.333Z,14.65
2022-10-06T17:28:20.093Z,16.27
2022-10-06T17:31:23.815Z,13.90
2022-10-06T17:34:30.741Z,12.80
2022-10-06T17:37:33.950Z,15.50
2022-10-06T17:40:35.648Z,14.73
2022-10-06T17:43:40.922Z,14.43
2022-10-06T17:46:44.051Z,22.80
2022-10-06T17:49:45.901Z,18.33
2022-10-06T17:52:47.976Z,26.13
2022-10-06T17:55:49.840Z,38.30
2022-10-06T17:59:00.776Z,35.10
2022-10-06T18:02:02.963Z,42.23
2022-10-06T18:05:05.978Z,41.03
2022-10-06T18:08:10.234Z,40.28
2022-10-06T18:11:31.409Z,32.25
2022-10-06T18:14:33.582Z,27.23
2022-10-06T18:17:35.213Z,31.27
2022-10-06T18:20:41.157Z,27.37
2022-10-06T18:23:43.512Z,31.00
2022-10-06T18:26:48.148Z,35.38
2022-10-06T18:29:49.794Z,40.08
2022-10-06T18:36:15.034Z,42.07
2022-10-06T18:39:17.044Z,43.05
2022-10-06T18:42:19.390Z,33.60
2022-10-06T18:45:39.838Z,33.17
2022-10-06T18:48:56.706Z,33.37
2022-10-06T18:51:58.707Z,31.17
2022-10-06T18:55:00.453Z,28.60
2022-10-06T18:58:02.395Z,32.15
2022-10-06T19:01:04.702Z,23.52
2022-10-06T19:04:09.784Z,17.37
2022-10-06T19:07:11.395Z,18.47
2022-10-06T19:10:12.939Z,17.40
2022-10-06T19:13:14.508Z,18.42
2022-10-06T19:16:17.571Z,19.25
2022-10-06T19:19:19.575Z,18.57
2022-10-06T19:22:24.497Z,14.17
2022-10-06T19:25:26.903Z,17.13
2022-10-06T19:28:30.379Z,17.48
2022-10-06T19:31:32.020Z,17.73
2022-10-06T19:34:34.833Z,16.70
2022-10-06T19:37:36.409Z,22.37
2022-10-06T19:40:38.015Z,19.92
2022-10-06T19:43:39.591Z,20.88
2022-10-06T19:46:41.177Z,24.17
2022-10-06T19:49:42.970Z,21.53
2022-10-06T19:52:45.237Z,22.63
2022-10-06T19:55:47.698Z,26.42
2022-10-06T19:58:49.918Z,23.98
2022-10-06T20:01:51.954Z,24.05
2022-10-06T20:04:53.577Z,25.20
2022-10-06T20:07:55.353Z,23.17
2022-10-06T20:11:08.160Z,21.58
2022-10-06T20:14:19.748Z,25.92
2022-10-06T20:17:23.254Z,26.67
2022-10-06T20:20:24.831Z,22.60
2022-10-06T20:23:27.549Z,27.00
2022-10-06T20:26:32.054Z,26.10
2022-10-06T20:29:34.022Z,23.77
2022-10-06T20:32:35.615Z,26.65
2022-10-06T20:35:37.181Z,28.37
2022-10-06T20:38:58.453Z,25.47
2022-10-06T20:42:00.099Z,28.13
2022-10-06T20:45:01.665Z,26.23
2022-10-06T20:48:03.375Z,25.23
2022-10-06T20:51:12.412Z,27.33
2022-10-06T20:54:14.092Z,25.70
2022-10-06T20:57:15.620Z,26.83
2022-10-06T21:00:17.885Z,28.60
2022-10-06T21:03:19.427Z,25.00
2022-10-06T21:06:22.485Z,28.13
2022-10-06T21:09:28.710Z,24.57
2022-10-06T21:12:30.437Z,25.67
2022-10-06T21:15:32.072Z,26.52
2022-10-06T21:18:33.788Z,27.30
2022-10-06T21:21:36.660Z,24.80
2022-10-06T21:24:38.205Z,25.80
2022-10-06T21:27:40.300Z,27.10
2022-10-06T21:30:44.219Z,26.92
2022-10-06T21:33:46.410Z,28.48
2022-10-06T21:36:47.946Z,25.43
2022-10-06T21:39:49.522Z,26.53
2022-10-06T21:42:51.070Z,29.60
2022-10-06T21:46:10.689Z,28.30
2022-10-06T21:49:21.507Z,28.98
2022-10-06T21:52:23.160Z,28.60
2022-10-06T21:55:24.726Z,25.60
2022-10-06T21:58:26.512Z,24.02
2022-10-06T22:01:35.298Z,26.80
2022-10-06T22:04:37.634Z,28.38
2022-10-06T22:07:39.196Z,29.03
2022-10-06T22:10:40.779Z,24.60
2022-10-06T22:13:44.176Z,26.33
2022-10-06T22:16:45.903Z,27.23
2022-10-06T22:19:47.934Z,25.75
2022-10-06T22:22:51.141Z,28.43
2022-10-06T22:25:58.927Z,24.17
2022-10-06T22:29:00.544Z,29.20
2022-10-06T22:32:02.124Z,25.48
2022-10-06T22:35:03.835Z,24.20
2022-10-06T22:38:05.411Z,24.30
2022-10-06T22:41:08.579Z,25.37
2022-10-06T22:44:10.144Z,23.50
2022-10-06T22:47:11.732Z,25.45
2022-10-06T22:50:13.363Z,28.20
2022-10-06T22:53:16.063Z,25.53
2022-10-06T22:56:17.618Z,22.20
2022-10-06T22:59:19.184Z,24.80
2022-10-06T23:02:20.738Z,25.65
2022-10-06T23:05:22.379Z,25.13
2022-10-06T23:08:24.239Z,28.37
2022-10-06T23:11:26.005Z,21.03
2022-10-06T23:14:27.580Z,27.35
2022-10-06T23:17:29.146Z,25.05
2022-10-06T23:20:30.778Z,22.65
2022-10-06T23:23:32.440Z,23.30
2022-10-06T23:26:34.222Z,23.57
2022-10-06T23:29:35.782Z,22.38
2022-10-06T23:32:37.592Z,25.38
2022-10-06T23:35:39.136Z,24.17
2022-10-06T23:38:42.239Z,25.43
2022-10-06T23:41:43.876Z,25.93
2022-10-06T23:44:45.438Z,26.85
2022-10-06T23:47:47.373Z,33.97
2022-10-06T23:50:57.958Z,28.45
2022-10-06T23:53:59.483Z,29.63
2022-10-06T23:57:01.049Z,32.80
